createdAt,value
2023-01-18T00:01:20.145Z,2.00
2023-01-18T00:03:47.229Z,2.00
2023-01-18T00:06:14.383Z,2.00
2023-01-18T00:08:42.605Z,2.10
2023-01-18T00:11:12.653Z,2.10
2023-01-18T00:13:39.908Z,2.10
2023-01-18T00:16:10.588Z,2.10
2023-01-18T00:18:37.857Z,2.90
2023-01-18T00:21:07.133Z,2.20
2023-01-18T00:23:34.288Z,2.20
2023-01-18T00:26:02.163Z,2.20
2023-01-18T00:28:29.729Z,2.10
2023-01-18T00:30:56.677Z,2.00
2023-01-18T00:33:23.585Z,2.00
2023-01-18T00:36:01.517Z,2.00
2023-01-18T00:38:29.626Z,2.00
2023-01-18T00:40:56.559Z,2.00
2023-01-18T00:43:40.121Z,2.00
2023-01-18T00:46:12.546Z,2.00
2023-01-18T00:48:41.085Z,2.10
2023-01-18T00:51:09.883Z,2.20
2023-01-18T00:53:38.218Z,2.00
2023-01-18T00:56:10.118Z,2.00
2023-01-18T00:58:37.638Z,2.00
2023-01-18T01:01:06.855Z,2.10
2023-01-18T01:03:54.366Z,2.00
2023-01-18T01:06:47.090Z,2.00
2023-01-18T01:09:29.356Z,2.00
2023-01-18T01:12:16.530Z,2.00
2023-01-18T01:15:05.155Z,1.90
2023-01-18T01:17:53.312Z,2.00
2023-01-18T01:20:39.715Z,1.90
2023-01-18T01:23:43.830Z,1.90
2023-01-18T01:26:11.813Z,1.90
2023-01-18T01:28:39.258Z,2.00
2023-01-18T01:31:08.483Z,2.00
2023-01-18T01:33:36.904Z,1.90
2023-01-18T01:36:10.958Z,2.10
2023-01-18T01:38:38.979Z,2.10
2023-01-18T01:41:08.796Z,2.20
2023-01-18T01:43:46.239Z,1.00
2023-01-18T01:46:29.395Z,2.10
2023-01-18T01:49:10.568Z,2.10
2023-01-18T01:51:41.880Z,2.10
2023-01-18T01:54:34.012Z,2.10
2023-01-18T01:57:06.223Z,2.10
2023-01-18T01:59:35.141Z,2.10
2023-01-18T02:02:03.753Z,1.90
2023-01-18T02:04:31.043Z,2.10
2023-01-18T02:06:57.869Z,2.00
2023-01-18T02:09:25.170Z,2.00
2023-01-18T02:11:54.205Z,2.00
2023-01-18T02:14:25.065Z,1.90
2023-01-18T02:17:16.543Z,2.00
2023-01-18T02:20:06.941Z,2.00
2023-01-18T02:22:55.650Z,1.90
2023-01-18T02:26:07.011Z,2.00
2023-01-18T02:28:37.690Z,2.10
2023-01-18T02:31:24.698Z,2.00
2023-01-18T02:34:09.058Z,2.10
2023-01-18T02:37:08.192Z,2.10
2023-01-18T02:40:06.103Z,2.20
2023-01-18T02:42:55.963Z,2.10
2023-01-18T02:45:53.071Z,2.10
2023-01-18T02:48:23.529Z,2.20
2023-01-18T02:50:50.792Z,2.20
2023-01-18T02:53:17.622Z,2.20
2023-01-18T02:56:02.664Z,2.30
2023-01-18T02:58:39.503Z,2.30
2023-01-18T03:01:28.748Z,2.30
2023-01-18T03:04:02.092Z,2.30
2023-01-18T03:06:30.237Z,2.20
2023-01-18T03:08:58.998Z,2.10
2023-01-18T03:11:50.893Z,2.20
2023-01-18T03:14:32.758Z,2.10
2023-01-18T03:17:11.977Z,2.20
2023-01-18T03:20:04.634Z,2.20
2023-01-18T03:23:19.629Z,2.20
2023-01-18T03:25:49.629Z,2.20
2023-01-18T03:29:00.143Z,2.20
2023-01-18T03:31:55.781Z,2.30
2023-01-18T03:34:30.465Z,2.20
2023-01-18T03:37:01.540Z,2.20
2023-01-18T03:39:34.309Z,2.20
2023-01-18T03:42:07.864Z,2.30
2023-01-18T03:44:58.890Z,2.30
2023-01-18T03:47:25.925Z,2.30
2023-01-18T03:49:52.851Z,2.30
2023-01-18T03:52:28.699Z,2.20
2023-01-18T03:55:24.482Z,2.20
2023-01-18T03:57:57.532Z,2.30
2023-01-18T04:00:24.429Z,2.20
2023-01-18T04:02:51.361Z,2.30
2023-01-18T04:05:18.938Z,2.20
2023-01-18T04:07:45.836Z,2.20
2023-01-18T04:10:12.777Z,2.30
2023-01-18T04:12:39.742Z,2.30
2023-01-18T04:15:07.080Z,2.30
2023-01-18T04:17:33.968Z,2.30
2023-01-18T04:20:00.831Z,2.20
2023-01-18T04:22:28.161Z,2.20
2023-01-18T04:24:55.020Z,2.30
2023-01-18T04:27:24.223Z,2.20
2023-01-18T04:29:51.822Z,2.10
2023-01-18T04:32:18.917Z,2.20
2023-01-18T04:34:45.773Z,2.30
2023-01-18T04:37:12.614Z,2.40
2023-01-18T04:39:39.412Z,2.50
2023-01-18T04:42:06.364Z,2.40
2023-01-18T04:44:33.205Z,2.40
2023-01-18T04:47:00.403Z,2.30
2023-01-18T04:49:27.852Z,2.30
2023-01-18T04:51:54.691Z,2.30
2023-01-18T04:54:21.481Z,2.30
2023-01-18T04:56:48.322Z,2.40
2023-01-18T04:59:16.731Z,2.40
2023-01-18T05:01:43.727Z,2.40
2023-01-18T05:04:10.841Z,2.30
2023-01-18T05:06:37.817Z,2.50
2023-01-18T05:09:04.646Z,2.40
2023-01-18T05:11:31.778Z,2.40
2023-01-18T05:13:58.630Z,2.40
2023-01-18T05:16:25.657Z,2.40
2023-01-18T05:18:52.875Z,2.50
2023-01-18T05:21:20.064Z,2.40
2023-01-18T05:23:46.930Z,2.40
2023-01-18T05:26:19.713Z,2.40
2023-01-18T05:28:47.144Z,2.40
2023-01-18T05:31:15.378Z,2.50
2023-01-18T05:33:42.675Z,2.50
2023-01-18T05:36:09.778Z,2.50
2023-01-18T05:38:36.612Z,2.50
2023-01-18T05:41:03.624Z,2.50
2023-01-18T05:43:30.899Z,2.50
2023-01-18T05:45:58.400Z,2.50
2023-01-18T05:48:25.390Z,2.60
2023-01-18T05:50:52.509Z,2.60
2023-01-18T05:53:22.126Z,2.50
2023-01-18T05:55:56.523Z,2.60
2023-01-18T05:58:23.933Z,2.70
2023-01-18T06:00:50.803Z,2.60
2023-01-18T06:03:17.744Z,2.60
2023-01-18T06:05:44.592Z,2.60
2023-01-18T06:08:11.436Z,2.70
2023-01-18T06:10:39.176Z,2.70
2023-01-18T06:13:06.867Z,2.70
2023-01-18T06:15:34.054Z,2.70
2023-01-18T06:18:01.157Z,2.80
2023-01-18T06:20:30.518Z,2.80
2023-01-18T06:22:58.561Z,2.90
2023-01-18T06:25:27.591Z,2.90
2023-01-18T06:27:54.408Z,2.90
2023-01-18T06:30:22.067Z,3.00
2023-01-18T06:32:49.979Z,3.10
2023-01-18T06:35:16.977Z,3.10
2023-01-18T06:37:45.401Z,3.10
2023-01-18T06:40:13.106Z,3.10
2023-01-18T06:42:40.465Z,3.20
2023-01-18T06:45:08.031Z,3.20
2023-01-18T06:47:34.988Z,3.20
2023-01-18T06:50:01.890Z,3.30
2023-01-18T06:52:28.737Z,3.30
2023-01-18T06:54:55.677Z,3.30
2023-01-18T06:57:23.989Z,3.30
2023-01-18T06:59:53.285Z,3.30
2023-01-18T07:02:21.156Z,3.40
2023-01-18T07:04:48.380Z,3.40
2023-01-18T07:07:16.487Z,3.40
2023-01-18T07:09:43.327Z,3.40
2023-01-18T07:12:10.247Z,3.40
2023-01-18T07:14:37.063Z,3.50
2023-01-18T07:17:04.856Z,3.50
2023-01-18T07:19:31.890Z,3.50
2023-01-18T07:21:59.759Z,3.60
2023-01-18T07:24:26.756Z,3.60
2023-01-18T07:26:54.118Z,3.70
2023-01-18T07:29:21.865Z,3.70
2023-01-18T07:31:49.425Z,3.70
2023-01-18T07:34:16.324Z,3.70
2023-01-18T07:36:43.992Z,3.70
2023-01-18T07:39:11.828Z,3.70
2023-01-18T07:41:38.749Z,3.80
2023-01-18T07:44:06.219Z,3.80
2023-01-18T07:46:33.277Z,3.80
2023-01-18T07:49:02.397Z,3.80
2023-01-18T07:51:29.323Z,3.90
2023-01-18T07:53:56.997Z,3.80
2023-01-18T07:56:25.777Z,3.90
2023-01-18T07:58:53.128Z,3.90
2023-01-18T08:01:22.002Z,3.90
2023-01-18T08:03:50.048Z,3.90
2023-01-18T08:06:26.686Z,4.00
2023-01-18T08:08:56.109Z,4.00
2023-01-18T08:11:23.351Z,4.10
2023-01-18T08:13:52.628Z,4.20
2023-01-18T08:16:19.753Z,4.20
2023-01-18T08:18:49.569Z,4.10
2023-01-18T08:21:16.517Z,4.20
2023-01-18T08:23:43.376Z,4.20
2023-01-18T08:26:12.804Z,4.30
2023-01-18T08:28:41.504Z,4.30
2023-01-18T08:31:18.234Z,4.40
2023-01-18T08:33:48.191Z,4.30
2023-01-18T08:36:23.111Z,4.40
2023-01-18T08:38:56.908Z,4.40
2023-01-18T08:41:28.586Z,4.40
2023-01-18T08:43:56.603Z,4.40
2023-01-18T08:46:24.113Z,4.40
2023-01-18T08:48:52.150Z,4.50
2023-01-18T08:51:19.446Z,4.50
2023-01-18T08:53:46.764Z,4.50
2023-01-18T08:56:13.888Z,4.60
2023-01-18T08:58:41.013Z,4.50
2023-01-18T09:01:09.291Z,4.60
2023-01-18T09:03:37.249Z,4.60
2023-01-18T09:06:08.703Z,4.60
2023-01-18T09:08:36.508Z,4.60
2023-01-18T09:11:09.803Z,4.60
2023-01-18T09:13:41.125Z,4.60
2023-01-18T09:16:12.533Z,4.70
2023-01-18T09:18:39.495Z,4.70
2023-01-18T09:21:08.384Z,4.70
2023-01-18T09:23:40.131Z,4.70
2023-01-18T09:26:09.840Z,4.90
2023-01-18T09:28:37.095Z,4.90
2023-01-18T09:31:06.348Z,4.90
2023-01-18T09:33:37.836Z,4.90
2023-01-18T09:36:08.719Z,5.00
2023-01-18T09:38:37.049Z,5.00
2023-01-18T09:41:08.179Z,5.00
2023-01-18T09:43:43.463Z,5.00
2023-01-18T09:46:21.840Z,4.90
2023-01-18T09:48:54.773Z,5.00
2023-01-18T09:51:27.950Z,5.00
2023-01-18T09:54:03.601Z,5.00
2023-01-18T09:56:43.123Z,5.10
2023-01-18T09:59:12.691Z,5.10
2023-01-18T10:01:39.869Z,5.20
2023-01-18T10:04:39.826Z,5.10
2023-01-18T10:07:13.106Z,5.30
2023-01-18T10:09:53.042Z,5.20
2023-01-18T10:12:39.451Z,5.30
2023-01-18T10:15:20.315Z,5.30
2023-01-18T10:17:49.934Z,5.40
2023-01-18T10:20:51.732Z,5.40
2023-01-18T10:23:48.469Z,5.40
2023-01-18T10:26:37.551Z,5.50
2023-01-18T10:29:38.325Z,5.50
2023-01-18T10:32:11.590Z,5.60
2023-01-18T10:34:44.517Z,5.60
2023-01-18T10:37:30.497Z,5.60
2023-01-18T10:40:00.978Z,5.60
2023-01-18T10:42:41.035Z,5.70
2023-01-18T10:45:37.453Z,5.70
2023-01-18T10:48:31.166Z,5.60
2023-01-18T10:51:07.808Z,5.60
2023-01-18T10:53:39.263Z,5.60
2023-01-18T10:56:21.763Z,5.60
2023-01-18T10:58:51.404Z,5.60
2023-01-18T11:01:24.693Z,5.60
2023-01-18T11:04:07.792Z,5.60
2023-01-18T11:06:54.751Z,5.60
2023-01-18T11:09:55.537Z,5.60
2023-01-18T11:12:44.362Z,5.60
2023-01-18T11:15:14.458Z,5.60
2023-01-18T11:17:58.098Z,5.70
2023-01-18T11:20:46.199Z,5.70
2023-01-18T11:23:17.650Z,5.80
2023-01-18T11:26:29.696Z,5.80
2023-01-18T11:29:02.170Z,5.80
2023-01-18T11:31:49.702Z,5.70
2023-01-18T11:34:28.253Z,5.80
2023-01-18T11:36:56.477Z,5.80
2023-01-18T11:39:24.976Z,5.80
2023-01-18T11:41:53.142Z,5.80
2023-01-18T11:44:27.261Z,5.80
2023-01-18T11:46:56.930Z,5.70
2023-01-18T11:49:37.879Z,5.70
2023-01-18T11:52:22.686Z,5.70
2023-01-18T11:54:53.909Z,5.80
2023-01-18T11:57:20.813Z,5.80
2023-01-18T11:59:49.210Z,5.80
2023-01-18T12:02:39.014Z,5.80
2023-01-18T12:05:35.870Z,5.70
2023-01-18T12:08:17.958Z,5.80
2023-01-18T12:11:08.928Z,5.80
2023-01-18T12:13:59.985Z,5.70
2023-01-18T12:16:41.594Z,5.60
2023-01-18T12:19:47.958Z,5.50
2023-01-18T12:22:40.987Z,5.40
2023-01-18T12:25:40.060Z,5.40
2023-01-18T12:28:15.111Z,5.50
2023-01-18T12:31:09.564Z,5.50
2023-01-18T12:33:50.486Z,5.50
2023-01-18T12:36:29.536Z,5.50
2023-01-18T12:38:57.004Z,5.60
2023-01-18T12:41:48.757Z,5.50
2023-01-18T12:44:36.556Z,5.50
2023-01-18T12:47:35.001Z,5.40
2023-01-18T12:50:22.990Z,5.40
2023-01-18T12:52:57.692Z,5.30
2023-01-18T12:55:25.888Z,5.30
2023-01-18T12:57:58.887Z,5.30
2023-01-18T13:00:41.354Z,5.30
2023-01-18T13:03:17.540Z,5.20
2023-01-18T13:05:52.980Z,5.10
2023-01-18T13:08:47.563Z,5.10
2023-01-18T13:11:20.819Z,5.00
2023-01-18T13:13:50.166Z,4.90
2023-01-18T13:16:34.598Z,4.90
2023-01-18T13:19:08.385Z,5.00
2023-01-18T13:22:00.102Z,4.90
2023-01-18T13:25:15.165Z,4.70
2023-01-18T13:27:58.245Z,4.70
2023-01-18T13:30:26.231Z,4.80
2023-01-18T13:32:53.667Z,4.70
2023-01-18T13:35:49.370Z,4.60
2023-01-18T13:38:36.194Z,4.60
2023-01-18T13:41:13.310Z,4.80
2023-01-18T13:44:01.406Z,4.80
2023-01-18T13:46:30.481Z,4.80
2023-01-18T13:49:00.156Z,4.80
2023-01-18T13:51:42.830Z,4.80
2023-01-18T13:54:18.628Z,4.80
2023-01-18T13:57:05.699Z,4.70
2023-01-18T13:59:34.152Z,4.70
2023-01-18T14:02:32.169Z,4.60
2023-01-18T14:05:16.697Z,4.60
2023-01-18T14:07:46.540Z,4.60
2023-01-18T14:10:30.394Z,4.60
2023-01-18T14:12:58.945Z,4.60
2023-01-18T14:15:44.842Z,4.50
2023-01-18T14:18:23.901Z,4.40
2023-01-18T14:21:02.419Z,4.50
2023-01-18T14:23:38.711Z,4.40
2023-01-18T14:26:12.150Z,4.40
2023-01-18T14:28:57.349Z,4.40
2023-01-18T14:31:32.726Z,4.20
2023-01-18T14:34:31.533Z,4.20
2023-01-18T14:36:58.495Z,4.10
2023-01-18T14:39:26.035Z,3.90
2023-01-18T14:42:00.158Z,3.90
2023-01-18T14:44:56.831Z,3.90
2023-01-18T14:47:31.042Z,3.80
2023-01-18T14:49:58.461Z,3.80
2023-01-18T14:52:30.264Z,3.60
2023-01-18T14:54:57.127Z,3.70
2023-01-18T14:57:24.471Z,3.60
2023-01-18T14:59:54.946Z,3.60
2023-01-18T15:02:27.109Z,3.60
2023-01-18T15:05:19.951Z,3.60
2023-01-18T15:07:54.977Z,3.50
2023-01-18T15:10:24.237Z,3.40
2023-01-18T15:12:56.658Z,3.30
2023-01-18T15:15:40.295Z,3.30
2023-01-18T15:18:11.618Z,3.40
2023-01-18T15:21:02.590Z,3.30
2023-01-18T15:23:30.356Z,3.20
2023-01-18T15:25:58.921Z,3.10
2023-01-18T15:28:36.823Z,3.10
2023-01-18T15:31:14.436Z,3.20
2023-01-18T15:33:42.919Z,3.10
2023-01-18T15:36:10.136Z,3.00
2023-01-18T15:38:37.298Z,3.00
2023-01-18T15:41:11.471Z,3.00
2023-01-18T15:43:42.637Z,2.90
2023-01-18T15:46:14.299Z,3.00
2023-01-18T15:48:53.873Z,3.00
2023-01-18T15:51:23.063Z,2.90
2023-01-18T15:53:56.151Z,3.00
2023-01-18T15:56:27.367Z,2.90
2023-01-18T15:58:57.267Z,3.00
2023-01-18T16:01:28.284Z,3.00
2023-01-18T16:04:22.825Z,3.10
2023-01-18T16:06:49.841Z,3.00
2023-01-18T16:09:21.580Z,3.10
2023-01-18T16:11:54.571Z,3.10
2023-01-18T16:14:35.683Z,3.10
2023-01-18T16:17:05.061Z,3.10
2023-01-18T16:19:36.833Z,3.10
2023-01-18T16:22:32.619Z,3.00
2023-01-18T16:25:21.088Z,3.00
2023-01-18T16:27:53.783Z,3.10
2023-01-18T16:30:34.754Z,3.10
2023-01-18T16:33:10.144Z,3.20
2023-01-18T16:35:39.941Z,3.10
2023-01-18T16:38:14.033Z,3.10
2023-01-18T16:40:44.175Z,3.20
2023-01-18T16:43:18.234Z,3.20
2023-01-18T16:45:50.161Z,3.30
2023-01-18T16:48:20.213Z,3.10
2023-01-18T16:50:47.864Z,3.10
2023-01-18T16:53:14.964Z,3.10
2023-01-18T16:55:44.139Z,3.20
2023-01-18T16:58:15.206Z,3.10
2023-01-18T17:00:58.264Z,3.10
2023-01-18T17:03:25.252Z,3.20
2023-01-18T17:05:52.235Z,3.10
2023-01-18T17:08:19.414Z,3.20
2023-01-18T17:10:49.297Z,3.20
2023-01-18T17:13:16.691Z,3.30
2023-01-18T17:15:45.563Z,4.60
2023-01-18T17:18:22.476Z,3.20
2023-01-18T17:20:49.967Z,3.20
2023-01-18T17:23:17.868Z,3.10
2023-01-18T17:25:45.094Z,3.20
2023-01-18T17:28:14.389Z,3.20
2023-01-18T17:30:43.820Z,3.20
2023-01-18T17:33:19.983Z,3.20
2023-01-18T17:35:49.036Z,3.10
2023-01-18T17:38:23.809Z,3.10
2023-01-18T17:40:52.206Z,3.10
2023-01-18T17:43:32.075Z,3.10
2023-01-18T17:46:02.407Z,3.20
2023-01-18T17:48:29.925Z,3.10
2023-01-18T17:50:56.989Z,3.10
2023-01-18T17:53:23.936Z,3.10
2023-01-18T17:55:50.966Z,3.20
2023-01-18T17:58:17.884Z,3.20
2023-01-18T18:00:45.434Z,3.10
2023-01-18T18:03:13.181Z,3.10
2023-01-18T18:05:40.216Z,3.10
2023-01-18T18:08:08.532Z,3.10
2023-01-18T18:10:35.765Z,3.10
2023-01-18T18:13:02.936Z,3.20
2023-01-18T18:15:30.299Z,3.20
2023-01-18T18:17:57.123Z,3.20
2023-01-18T18:20:24.422Z,3.20
2023-01-18T18:22:51.555Z,3.20
2023-01-18T18:25:18.540Z,3.20
2023-01-18T18:27:46.775Z,3.20
2023-01-18T18:30:15.490Z,3.20
2023-01-18T18:32:42.372Z,3.20
2023-01-18T18:35:23.803Z,3.30
2023-01-18T18:37:53.692Z,3.10
2023-01-18T18:40:20.767Z,3.20
2023-01-18T18:43:00.163Z,3.20
2023-01-18T18:45:27.961Z,3.20
2023-01-18T18:47:54.792Z,3.20
2023-01-18T18:50:21.814Z,3.20
2023-01-18T18:52:48.734Z,3.10
2023-01-18T18:55:15.653Z,3.10
2023-01-18T18:57:42.491Z,3.50
2023-01-18T19:00:09.940Z,3.10
2023-01-18T19:02:36.850Z,3.20
2023-01-18T19:05:06.497Z,3.10
2023-01-18T19:07:37.071Z,3.10
2023-01-18T19:10:05.561Z,3.10
2023-01-18T19:12:32.476Z,3.20
2023-01-18T19:14:59.506Z,3.20
2023-01-18T19:17:30.601Z,3.10
2023-01-18T19:19:58.294Z,3.10
2023-01-18T19:22:26.519Z,3.10
2023-01-18T19:24:53.431Z,3.20
2023-01-18T19:27:21.597Z,3.40
2023-01-18T19:29:48.542Z,3.30
2023-01-18T19:32:15.673Z,3.20
2023-01-18T19:34:42.510Z,3.20
2023-01-18T19:37:09.728Z,3.20
2023-01-18T19:39:36.623Z,3.20
2023-01-18T19:42:03.580Z,3.20
2023-01-18T19:44:30.488Z,3.30
2023-01-18T19:46:57.446Z,3.30
2023-01-18T19:49:26.415Z,3.20
2023-01-18T19:51:54.658Z,3.20
2023-01-18T19:54:22.303Z,3.20
2023-01-18T19:56:49.655Z,3.10
2023-01-18T19:59:16.581Z,3.30
2023-01-18T20:01:43.894Z,3.20
2023-01-18T20:04:13.172Z,3.20
2023-01-18T20:06:42.361Z,3.30
2023-01-18T20:09:19.045Z,3.20
2023-01-18T20:11:47.897Z,3.20
2023-01-18T20:14:14.987Z,3.10
2023-01-18T20:16:43.842Z,3.10
2023-01-18T20:19:15.849Z,3.20
2023-01-18T20:21:42.691Z,3.20
2023-01-18T20:24:11.177Z,3.80
2023-01-18T20:26:40.781Z,3.20
2023-01-18T20:29:08.927Z,3.10
2023-01-18T20:31:37.515Z,3.20
2023-01-18T20:34:05.415Z,3.20
2023-01-18T20:36:34.908Z,3.30
2023-01-18T20:39:02.557Z,3.40
2023-01-18T20:41:30.035Z,3.30
2023-01-18T20:43:56.877Z,3.40
2023-01-18T20:46:23.815Z,3.40
2023-01-18T20:48:50.708Z,3.30
2023-01-18T20:51:18.069Z,3.30
2023-01-18T20:53:45.108Z,3.50
2023-01-18T20:56:27.768Z,3.50
2023-01-18T20:58:56.088Z,3.60
2023-01-18T21:01:23.015Z,3.50
2023-01-18T21:03:54.542Z,3.60
2023-01-18T21:06:21.642Z,3.60
2023-01-18T21:08:51.612Z,3.50
2023-01-18T21:11:18.442Z,3.60
2023-01-18T21:13:45.239Z,3.50
2023-01-18T21:16:12.631Z,3.50
2023-01-18T21:18:39.487Z,3.60
2023-01-18T21:21:06.981Z,3.60
2023-01-18T21:23:39.552Z,3.30
2023-01-18T21:26:11.751Z,3.20
2023-01-18T21:28:38.860Z,3.20
2023-01-18T21:31:06.720Z,3.30
2023-01-18T21:33:33.995Z,3.40
2023-01-18T21:36:09.571Z,3.30
2023-01-18T21:38:36.669Z,3.20
2023-01-18T21:41:23.158Z,3.10
2023-01-18T21:44:11.370Z,3.10
2023-01-18T21:46:38.911Z,3.30
2023-01-18T21:49:06.899Z,3.30
2023-01-18T21:51:52.616Z,3.30
2023-01-18T21:54:22.102Z,3.20
2023-01-18T21:56:49.051Z,3.10
2023-01-18T21:59:15.902Z,3.20
2023-01-18T22:01:44.997Z,3.10
2023-01-18T22:04:33.191Z,3.10
2023-01-18T22:07:00.794Z,3.00
2023-01-18T22:09:29.148Z,3.10
2023-01-18T22:11:57.419Z,3.10
2023-01-18T22:14:25.749Z,3.10
2023-01-18T22:16:53.013Z,3.00
2023-01-18T22:19:19.946Z,3.00
2023-01-18T22:21:47.718Z,3.10
2023-01-18T22:24:15.848Z,3.00
2023-01-18T22:26:43.250Z,3.10
2023-01-18T22:29:10.345Z,2.90
2023-01-18T22:31:37.746Z,2.80
2023-01-18T22:34:06.024Z,2.80
2023-01-18T22:36:33.756Z,2.70
2023-01-18T22:39:00.872Z,2.80
2023-01-18T22:41:29.333Z,2.80
2023-01-18T22:43:56.428Z,2.80
2023-01-18T22:46:24.471Z,2.80
2023-01-18T22:48:51.890Z,2.70
2023-01-18T22:51:21.961Z,2.70
2023-01-18T22:53:49.488Z,2.80
2023-01-18T22:56:21.597Z,2.70
2023-01-18T22:58:49.297Z,2.80
2023-01-18T23:01:21.421Z,2.90
2023-01-18T23:03:50.119Z,2.90
2023-01-18T23:06:18.693Z,2.80
2023-01-18T23:08:47.303Z,2.80
2023-01-18T23:11:25.649Z,2.80
2023-01-18T23:14:16.239Z,2.90
2023-01-18T23:17:02.577Z,3.00
2023-01-18T23:19:30.967Z,2.90
2023-01-18T23:21:58.304Z,2.90
2023-01-18T23:24:25.380Z,2.90
2023-01-18T23:26:52.706Z,2.90
2023-01-18T23:29:20.270Z,3.00
2023-01-18T23:31:47.154Z,2.90
2023-01-18T23:34:14.043Z,2.80
2023-01-18T23:36:40.852Z,2.80
2023-01-18T23:39:26.276Z,2.70
2023-01-18T23:42:11.591Z,2.70
2023-01-18T23:44:57.220Z,2.70
2023-01-18T23:47:42.724Z,2.70
2023-01-18T23:50:28.545Z,2.80
2023-01-18T23:53:13.946Z,2.70
2023-01-18T23:55:41.555Z,2.60
2023-01-18T23:58:08.429Z,2.50
